createdAt,value
2019-05-30T00:01:26.083Z,6.03
2019-05-30T00:03:47.742Z,5.42
2019-05-30T00:06:09.346Z,5.35
2019-05-30T00:08:30.926Z,5.78
2019-05-30T00:10:52.453Z,5.75
2019-05-30T00:13:14.056Z,5.42
2019-05-30T00:15:35.526Z,5.47
2019-05-30T00:18:00.879Z,5.28
2019-05-30T00:20:22.475Z,5.80
2019-05-30T00:22:44.434Z,5.62
2019-05-30T00:25:25.989Z,5.80
2019-05-30T00:27:47.589Z,5.47
2019-05-30T00:30:23.804Z,5.50
2019-05-30T00:32:33.288Z,5.15
2019-05-30T00:34:55.563Z,5.25
2019-05-30T00:37:17.148Z,4.90
2019-05-30T00:39:38.966Z,4.78
2019-05-30T00:42:00.549Z,5.75
2019-05-30T00:44:22.134Z,5.20
2019-05-30T00:46:43.759Z,4.83
2019-05-30T00:49:06.622Z,5.20
2019-05-30T00:51:28.570Z,5.05
2019-05-30T00:53:50.234Z,4.75
2019-05-30T00:56:12.238Z,5.40
2019-05-30T00:58:33.844Z,5.60
2019-05-30T01:00:56.698Z,4.83
2019-05-30T01:03:18.470Z,4.95
2019-05-30T01:05:40.066Z,4.70
2019-05-30T01:08:03.239Z,4.10
2019-05-30T01:10:25.110Z,4.57
2019-05-30T01:13:07.224Z,3.77
2019-05-30T01:15:28.970Z,4.53
2019-05-30T01:17:50.574Z,3.70
2019-05-30T01:20:14.198Z,4.05
2019-05-30T01:22:35.809Z,3.90
2019-05-30T01:24:57.401Z,4.10
2019-05-30T01:27:18.921Z,3.72
2019-05-30T01:29:40.421Z,3.95
2019-05-30T01:32:03.852Z,3.77
2019-05-30T01:34:25.356Z,3.70
2019-05-30T01:36:46.970Z,3.72
2019-05-30T01:39:08.585Z,3.15
2019-05-30T01:41:30.189Z,3.90
2019-05-30T01:43:51.676Z,4.10
2019-05-30T01:46:13.700Z,3.80
2019-05-30T01:48:35.286Z,3.87
2019-05-30T01:50:56.796Z,4.03
2019-05-30T01:53:18.303Z,4.20
2019-05-30T01:55:40.037Z,3.95
2019-05-30T01:58:02.822Z,3.92
2019-05-30T02:00:28.652Z,3.90
2019-05-30T02:02:50.250Z,4.28
2019-05-30T02:05:13.884Z,4.22
2019-05-30T02:07:35.363Z,4.60
2019-05-30T02:09:56.979Z,3.72
2019-05-30T02:12:18.500Z,4.40
2019-05-30T02:14:40.104Z,3.77
2019-05-30T02:17:01.620Z,3.90
2019-05-30T02:19:23.086Z,4.33
2019-05-30T02:21:44.581Z,4.53
2019-05-30T02:24:06.082Z,4.03
2019-05-30T02:26:27.713Z,4.08
2019-05-30T02:28:49.209Z,4.12
2019-05-30T02:31:12.291Z,4.33
2019-05-30T02:33:34.145Z,4.20
2019-05-30T02:35:55.660Z,4.45
2019-05-30T02:38:17.241Z,3.35
2019-05-30T02:40:38.737Z,3.80
2019-05-30T02:43:01.208Z,3.55
2019-05-30T02:45:23.520Z,3.33
2019-05-30T02:47:45.049Z,2.95
2019-05-30T02:50:09.043Z,3.17
2019-05-30T02:52:30.641Z,3.10
2019-05-30T02:54:52.152Z,3.05
2019-05-30T02:57:13.627Z,2.92
2019-05-30T02:59:54.987Z,3.20
2019-05-30T03:02:17.667Z,3.30
2019-05-30T03:04:39.778Z,3.15
2019-05-30T03:07:02.441Z,3.30
2019-05-30T03:09:25.422Z,3.00
2019-05-30T03:11:47.181Z,3.25
2019-05-30T03:14:18.300Z,3.60
2019-05-30T03:16:33.393Z,3.35
2019-05-30T03:18:54.989Z,3.55
2019-05-30T03:21:16.510Z,3.58
2019-05-30T03:23:38.113Z,3.70
2019-05-30T03:25:59.585Z,3.55
2019-05-30T03:28:21.228Z,3.25
2019-05-30T03:30:44.644Z,3.95
2019-05-30T03:33:18.946Z,3.90
2019-05-30T03:35:38.937Z,4.17
2019-05-30T03:37:53.552Z,3.60
2019-05-30T03:40:15.276Z,2.95
2019-05-30T03:42:36.900Z,3.90
2019-05-30T03:44:58.394Z,3.40
2019-05-30T03:47:22.392Z,3.87
2019-05-30T03:49:46.815Z,3.62
2019-05-30T03:52:14.184Z,3.60
2019-05-30T03:54:35.840Z,3.77
2019-05-30T03:57:08.774Z,3.50
2019-05-30T03:59:36.910Z,4.17
2019-05-30T04:02:13.432Z,5.30
2019-05-30T04:04:38.790Z,5.25
2019-05-30T04:07:15.572Z,5.28
2019-05-30T04:09:40.999Z,4.60
2019-05-30T04:12:25.676Z,4.15
2019-05-30T04:14:50.817Z,4.30
2019-05-30T04:17:13.717Z,4.37
2019-05-30T04:19:35.846Z,4.47
2019-05-30T04:21:57.468Z,3.98
2019-05-30T04:24:19.774Z,4.25
2019-05-30T04:26:41.439Z,3.62
2019-05-30T04:29:03.058Z,3.80
2019-05-30T04:31:24.545Z,4.08
2019-05-30T04:33:46.031Z,4.47
2019-05-30T04:36:08.386Z,3.92
2019-05-30T04:38:30.090Z,4.50
2019-05-30T04:40:51.860Z,3.65
2019-05-30T04:43:13.567Z,3.22
2019-05-30T04:45:35.341Z,4.33
2019-05-30T04:47:56.824Z,3.67
2019-05-30T04:50:19.203Z,3.58
2019-05-30T04:52:42.074Z,3.75
2019-05-30T04:55:05.377Z,3.80
2019-05-30T04:57:27.329Z,3.30
2019-05-30T04:59:49.159Z,3.30
2019-05-30T05:02:11.450Z,3.37
2019-05-30T05:04:33.690Z,3.52
2019-05-30T05:06:55.317Z,3.50
2019-05-30T05:09:18.208Z,3.33
2019-05-30T05:11:39.919Z,3.15
2019-05-30T05:14:01.507Z,3.70
2019-05-30T05:16:34.795Z,3.87
2019-05-30T05:18:46.586Z,3.97
2019-05-30T05:21:08.074Z,4.87
2019-05-30T05:23:29.679Z,3.40
2019-05-30T05:26:00.227Z,3.27
2019-05-30T05:28:15.663Z,3.12
2019-05-30T05:30:37.571Z,3.52
2019-05-30T05:32:59.096Z,4.05
2019-05-30T05:35:22.909Z,4.20
2019-05-30T05:37:45.336Z,4.30
2019-05-30T05:40:09.105Z,3.58
2019-05-30T05:42:30.590Z,2.95
2019-05-30T05:44:52.070Z,4.55
2019-05-30T05:47:13.598Z,4.00
2019-05-30T05:49:35.177Z,3.95
2019-05-30T05:51:56.821Z,4.47
2019-05-30T05:54:18.862Z,5.00
2019-05-30T05:56:40.557Z,4.75
2019-05-30T05:59:23.062Z,4.10
2019-05-30T06:01:44.598Z,4.33
2019-05-30T06:04:13.148Z,3.40
2019-05-30T06:06:31.508Z,5.57
2019-05-30T06:08:53.059Z,3.27
2019-05-30T06:11:14.958Z,3.92
2019-05-30T06:13:37.035Z,3.72
2019-05-30T06:15:58.505Z,3.15
2019-05-30T06:18:20.216Z,3.90
2019-05-30T06:20:42.026Z,4.83
2019-05-30T06:23:03.708Z,4.72
2019-05-30T06:25:29.868Z,3.77
2019-05-30T06:27:48.649Z,4.47
2019-05-30T06:30:10.921Z,3.70
2019-05-30T06:32:32.557Z,3.72
2019-05-30T06:34:54.127Z,3.45
2019-05-30T06:37:15.717Z,4.08
2019-05-30T06:39:37.275Z,3.55
2019-05-30T06:41:58.818Z,2.80
2019-05-30T06:44:20.289Z,3.47
2019-05-30T06:46:41.885Z,3.30
2019-05-30T06:49:03.833Z,3.58
2019-05-30T06:51:26.970Z,3.25
2019-05-30T06:53:48.494Z,3.27
2019-05-30T06:56:10.119Z,3.27
2019-05-30T06:58:45.545Z,3.42
2019-05-30T07:00:54.986Z,2.80
2019-05-30T07:03:16.999Z,3.10
2019-05-30T07:05:38.940Z,3.65
2019-05-30T07:08:01.263Z,3.55
2019-05-30T07:10:22.887Z,3.30
2019-05-30T07:12:44.583Z,3.00
2019-05-30T07:15:10.151Z,2.92
2019-05-30T07:17:31.766Z,2.90
2019-05-30T07:19:53.245Z,2.60
2019-05-30T07:22:14.721Z,3.70
2019-05-30T07:24:36.347Z,3.08
2019-05-30T07:26:57.943Z,3.20
2019-05-30T07:29:19.568Z,3.15
2019-05-30T07:31:41.109Z,2.90
2019-05-30T07:34:02.957Z,3.00
2019-05-30T07:36:24.515Z,3.42
2019-05-30T07:38:46.148Z,2.92
2019-05-30T07:41:07.874Z,2.50
2019-05-30T07:43:30.739Z,2.37
2019-05-30T07:45:57.965Z,2.65
2019-05-30T07:48:15.975Z,2.93
2019-05-30T07:50:38.541Z,2.62
2019-05-30T07:53:00.304Z,2.60
2019-05-30T07:55:22.416Z,2.67
2019-05-30T07:57:43.896Z,2.27
2019-05-30T08:00:08.511Z,2.50
2019-05-30T08:02:31.515Z,1.98
2019-05-30T08:04:53.251Z,1.90
2019-05-30T08:07:15.153Z,2.00
2019-05-30T08:09:37.098Z,2.60
2019-05-30T08:11:58.637Z,1.98
2019-05-30T08:14:20.227Z,2.35
2019-05-30T08:16:41.706Z,2.60
2019-05-30T08:19:03.550Z,2.33
2019-05-30T08:21:25.144Z,1.82
2019-05-30T08:23:46.629Z,1.85
2019-05-30T08:26:08.178Z,1.67
2019-05-30T08:28:30.297Z,1.95
2019-05-30T08:30:51.965Z,2.02
2019-05-30T08:33:13.931Z,2.20
2019-05-30T08:35:43.579Z,2.15
2019-05-30T08:37:58.855Z,2.47
2019-05-30T08:40:20.372Z,1.77
2019-05-30T08:42:42.053Z,2.05
2019-05-30T08:45:10.001Z,1.92
2019-05-30T08:47:31.932Z,2.00
2019-05-30T08:49:53.403Z,1.72
2019-05-30T08:52:15.041Z,2.37
2019-05-30T08:54:36.673Z,1.62
2019-05-30T08:56:58.275Z,1.47
2019-05-30T08:59:19.854Z,2.00
2019-05-30T09:01:42.089Z,2.37
2019-05-30T09:04:03.908Z,1.70
2019-05-30T09:06:25.390Z,2.20
2019-05-30T09:08:46.922Z,2.27
2019-05-30T09:11:08.537Z,2.47
2019-05-30T09:13:30.110Z,2.17
2019-05-30T09:15:51.771Z,2.00
2019-05-30T09:18:13.255Z,2.72
2019-05-30T09:20:34.879Z,2.30
2019-05-30T09:22:56.382Z,2.50
2019-05-30T09:25:18.794Z,2.10
2019-05-30T09:27:40.887Z,2.35
2019-05-30T09:30:06.900Z,2.33
2019-05-30T09:32:28.382Z,2.15
2019-05-30T09:34:49.879Z,2.10
2019-05-30T09:37:11.405Z,1.90
2019-05-30T09:39:32.896Z,2.20
2019-05-30T09:41:54.525Z,2.25
2019-05-30T09:44:16.115Z,1.90
2019-05-30T09:46:37.595Z,1.60
2019-05-30T09:48:59.090Z,1.30
2019-05-30T09:51:20.707Z,1.30
2019-05-30T09:53:42.719Z,1.50
2019-05-30T09:56:05.501Z,1.70
2019-05-30T09:58:27.137Z,1.22
2019-05-30T10:00:50.261Z,1.40
2019-05-30T10:03:12.053Z,1.50
2019-05-30T10:05:33.892Z,2.00
2019-05-30T10:07:55.464Z,2.00
2019-05-30T10:10:18.753Z,1.62
2019-05-30T10:12:40.389Z,1.80
2019-05-30T10:15:02.315Z,1.50
2019-05-30T10:17:23.795Z,1.90
2019-05-30T10:19:47.030Z,1.98
2019-05-30T10:22:08.829Z,1.70
2019-05-30T10:24:33.531Z,1.70
2019-05-30T10:26:55.182Z,2.20
2019-05-30T10:29:16.686Z,2.10
2019-05-30T10:31:38.253Z,2.50
2019-05-30T10:34:00.114Z,2.72
2019-05-30T10:36:21.994Z,2.00
2019-05-30T10:38:43.462Z,2.72
2019-05-30T10:41:05.125Z,2.12
2019-05-30T10:43:26.605Z,2.02
2019-05-30T10:45:49.533Z,1.80
2019-05-30T10:48:11.296Z,1.80
2019-05-30T10:50:32.911Z,1.77
2019-05-30T10:52:55.581Z,1.98
2019-05-30T10:55:19.747Z,1.47
2019-05-30T10:57:41.473Z,1.80
2019-05-30T11:00:09.192Z,1.62
2019-05-30T11:02:29.714Z,1.90
2019-05-30T11:04:53.011Z,1.65
2019-05-30T11:07:27.157Z,1.70
2019-05-30T11:09:55.373Z,2.00
2019-05-30T11:12:16.869Z,2.25
2019-05-30T11:14:38.448Z,2.30
2019-05-30T11:17:00.017Z,2.22
2019-05-30T11:19:21.607Z,2.10
2019-05-30T11:21:43.604Z,1.87
2019-05-30T11:24:05.152Z,2.40
2019-05-30T11:26:26.630Z,2.20
2019-05-30T11:28:48.662Z,2.27
2019-05-30T11:31:10.727Z,2.10
2019-05-30T11:33:32.385Z,1.90
2019-05-30T11:35:55.106Z,2.25
2019-05-30T11:38:16.995Z,2.50
2019-05-30T11:40:39.737Z,2.20
2019-05-30T11:43:01.523Z,2.15
2019-05-30T11:45:23.788Z,2.30
2019-05-30T11:47:45.541Z,2.35
2019-05-30T11:50:08.024Z,1.90
2019-05-30T11:52:29.885Z,1.90
2019-05-30T11:54:52.027Z,2.20
2019-05-30T11:57:13.862Z,2.00
2019-05-30T11:59:35.511Z,2.00
2019-05-30T12:01:58.499Z,2.33
2019-05-30T12:04:20.277Z,2.08
2019-05-30T12:06:42.170Z,1.80
2019-05-30T12:09:06.167Z,2.15
2019-05-30T12:11:27.654Z,1.47
2019-05-30T12:13:49.301Z,1.42
2019-05-30T12:16:10.889Z,1.60
2019-05-30T12:18:33.212Z,2.05
2019-05-30T12:20:55.733Z,2.30
2019-05-30T12:23:17.594Z,2.37
2019-05-30T12:25:39.983Z,2.05
2019-05-30T12:28:04.125Z,1.60
2019-05-30T12:30:25.322Z,1.70
2019-05-30T12:32:46.916Z,1.45
2019-05-30T12:35:09.236Z,1.80
2019-05-30T12:37:30.788Z,1.90
2019-05-30T12:39:52.499Z,1.92
2019-05-30T12:42:14.230Z,1.60
2019-05-30T12:44:35.826Z,1.57
2019-05-30T12:46:57.415Z,0.72
2019-05-30T12:49:19.158Z,1.17
2019-05-30T12:51:41.104Z,1.42
2019-05-30T12:54:03.180Z,1.47
2019-05-30T12:56:24.830Z,1.80
2019-05-30T12:58:46.417Z,1.70
2019-05-30T13:01:07.899Z,1.65
2019-05-30T13:03:29.472Z,1.20
2019-05-30T13:05:50.959Z,1.52
2019-05-30T13:08:21.337Z,1.77
2019-05-30T13:10:35.770Z,1.85
2019-05-30T13:12:57.531Z,2.25
2019-05-30T13:15:19.235Z,1.77
2019-05-30T13:17:40.896Z,1.60
2019-05-30T13:20:05.040Z,1.67
2019-05-30T13:22:26.608Z,1.60
2019-05-30T13:24:48.235Z,1.70
2019-05-30T13:27:09.726Z,1.87
2019-05-30T13:29:31.219Z,1.70
2019-05-30T13:31:52.855Z,2.08
2019-05-30T13:34:14.849Z,4.03
2019-05-30T13:36:36.334Z,2.15
2019-05-30T13:38:59.017Z,2.00
2019-05-30T13:41:20.844Z,1.65
2019-05-30T13:43:42.334Z,1.45
2019-05-30T13:46:04.532Z,1.57
2019-05-30T13:48:26.323Z,1.27
2019-05-30T13:50:47.898Z,1.42
2019-05-30T13:53:09.521Z,1.40
2019-05-30T13:55:31.492Z,1.30
2019-05-30T13:57:53.578Z,1.15
2019-05-30T14:00:17.696Z,1.05
2019-05-30T14:02:39.278Z,1.22
2019-05-30T14:05:02.253Z,0.98
2019-05-30T14:07:24.064Z,0.75
2019-05-30T14:09:46.026Z,1.20
2019-05-30T14:12:08.611Z,0.90
2019-05-30T14:14:30.374Z,1.20
2019-05-30T14:16:51.950Z,1.12
2019-05-30T14:19:13.588Z,1.10
2019-05-30T14:21:54.955Z,0.98
2019-05-30T14:24:16.430Z,1.20
2019-05-30T14:26:37.926Z,0.70
2019-05-30T14:28:59.451Z,1.30
2019-05-30T14:31:20.942Z,1.30
2019-05-30T14:33:42.686Z,1.07
2019-05-30T14:36:07.456Z,1.00
2019-05-30T14:38:27.584Z,1.05
2019-05-30T14:40:49.514Z,1.20
2019-05-30T14:43:11.514Z,1.30
2019-05-30T14:45:33.137Z,1.20
2019-05-30T14:47:54.728Z,0.98
2019-05-30T14:50:17.674Z,1.00
2019-05-30T14:52:40.251Z,1.10
2019-05-30T14:55:02.954Z,1.30
2019-05-30T14:57:24.537Z,1.30
2019-05-30T14:59:46.112Z,1.35
2019-05-30T15:02:07.696Z,1.40
2019-05-30T15:04:29.228Z,1.20
2019-05-30T15:06:50.832Z,1.10
2019-05-30T15:09:22.158Z,1.30
2019-05-30T15:11:36.116Z,1.23
2019-05-30T15:13:57.710Z,1.30
2019-05-30T15:16:19.316Z,1.37
2019-05-30T15:18:40.843Z,1.35
2019-05-30T15:21:02.866Z,1.30
2019-05-30T15:23:24.431Z,1.30
2019-05-30T15:25:46.087Z,1.17
2019-05-30T15:28:07.997Z,1.70
2019-05-30T15:30:29.583Z,1.37
2019-05-30T15:32:51.536Z,1.42
2019-05-30T15:35:15.507Z,1.10
2019-05-30T15:40:00.879Z,1.30
2019-05-30T15:42:22.330Z,1.20
2019-05-30T15:44:43.941Z,1.50
2019-05-30T15:47:05.573Z,1.32
2019-05-30T15:49:27.059Z,1.25
2019-05-30T15:51:48.550Z,1.22
2019-05-30T15:54:10.830Z,1.60
2019-05-30T15:56:32.743Z,1.52
2019-05-30T15:58:54.748Z,1.60
2019-05-30T16:01:16.372Z,1.45
2019-05-30T16:03:37.988Z,1.50
2019-05-30T16:05:59.591Z,1.60
2019-05-30T16:08:21.246Z,1.60
2019-05-30T16:10:42.825Z,1.60
2019-05-30T16:13:04.413Z,1.65
2019-05-30T16:15:26.433Z,1.40
2019-05-30T16:17:48.027Z,1.80
2019-05-30T16:20:09.981Z,1.80
2019-05-30T16:22:31.445Z,1.70
2019-05-30T16:24:53.393Z,1.60
2019-05-30T16:27:15.779Z,1.40
2019-05-30T16:29:37.489Z,1.35
2019-05-30T16:31:58.977Z,1.72
2019-05-30T16:34:22.148Z,1.72
2019-05-30T16:36:43.819Z,1.70
2019-05-30T16:39:05.806Z,1.80
2019-05-30T16:41:27.416Z,2.10
2019-05-30T16:43:49.051Z,2.70
2019-05-30T16:46:10.542Z,3.25
2019-05-30T16:48:32.147Z,2.60
2019-05-30T16:50:53.667Z,3.05
2019-05-30T16:53:16.754Z,3.80
2019-05-30T16:55:38.805Z,4.53
2019-05-30T16:58:00.443Z,3.85
2019-05-30T17:00:22.449Z,3.80
2019-05-30T17:02:44.162Z,4.08
2019-05-30T17:05:06.075Z,4.33
2019-05-30T17:07:27.664Z,4.25
2019-05-30T17:09:49.374Z,4.20
2019-05-30T17:12:11.281Z,4.10
2019-05-30T17:14:32.861Z,4.65
2019-05-30T17:16:54.348Z,5.00
2019-05-30T17:19:16.456Z,6.28
2019-05-30T17:21:38.275Z,8.23
2019-05-30T17:23:59.883Z,7.28
2019-05-30T17:26:21.421Z,10.03
2019-05-30T17:28:43.034Z,7.08
2019-05-30T17:31:04.624Z,6.75
2019-05-30T17:33:26.728Z,5.85
2019-05-30T17:35:48.849Z,6.10
2019-05-30T17:38:10.347Z,6.33
2019-05-30T17:40:44.162Z,6.90
2019-05-30T17:42:55.294Z,6.03
2019-05-30T17:45:16.777Z,6.20
2019-05-30T17:47:38.414Z,6.65
2019-05-30T17:50:00.072Z,6.78
2019-05-30T17:52:21.765Z,6.37
2019-05-30T17:54:43.492Z,6.90
2019-05-30T17:57:05.116Z,6.40
2019-05-30T17:59:26.734Z,7.08
2019-05-30T18:01:48.447Z,6.72
2019-05-30T18:04:09.911Z,7.12
2019-05-30T18:06:31.605Z,7.03
2019-05-30T18:08:53.234Z,6.62
2019-05-30T18:11:14.738Z,7.10
2019-05-30T18:13:36.351Z,6.40
2019-05-30T18:15:57.982Z,7.15
2019-05-30T18:18:19.571Z,7.28
2019-05-30T18:20:48.335Z,7.75
2019-05-30T18:23:04.489Z,7.67
2019-05-30T18:25:25.994Z,7.40
2019-05-30T18:27:47.836Z,7.50
2019-05-30T18:30:12.067Z,7.45
2019-05-30T18:32:33.626Z,7.35
2019-05-30T18:34:57.362Z,8.28
2019-05-30T18:37:18.583Z,8.00
2019-05-30T18:39:40.171Z,7.97
2019-05-30T18:42:01.723Z,7.35
2019-05-30T18:44:25.717Z,8.43
2019-05-30T18:46:47.262Z,8.50
2019-05-30T18:49:08.738Z,7.90
2019-05-30T18:51:30.424Z,8.88
2019-05-30T18:53:51.993Z,8.38
2019-05-30T18:56:13.551Z,8.00
2019-05-30T18:58:35.253Z,8.05
2019-05-30T19:00:56.737Z,8.20
2019-05-30T19:03:18.933Z,7.83
2019-05-30T19:05:40.476Z,8.53
2019-05-30T19:08:02.117Z,8.03
2019-05-30T19:10:24.001Z,7.08
2019-05-30T19:12:45.454Z,7.90
2019-05-30T19:15:07.562Z,8.13
2019-05-30T19:17:29.564Z,7.55
2019-05-30T19:19:51.460Z,8.13
2019-05-30T19:22:13.394Z,8.10
2019-05-30T19:24:34.957Z,7.97
2019-05-30T19:26:56.618Z,8.08
2019-05-30T19:29:18.642Z,8.95
2019-05-30T19:31:40.139Z,8.78
2019-05-30T19:34:01.810Z,8.15
2019-05-30T19:36:23.727Z,8.75
2019-05-30T19:38:45.203Z,8.25
2019-05-30T19:41:06.854Z,9.28
2019-05-30T19:43:29.723Z,9.15
2019-05-30T19:45:51.626Z,9.18
2019-05-30T19:48:13.611Z,8.53
2019-05-30T19:50:35.205Z,9.43
2019-05-30T19:52:56.711Z,9.18
2019-05-30T19:55:21.369Z,9.45
2019-05-30T19:57:41.613Z,8.43
2019-05-30T20:00:06.771Z,9.18
2019-05-30T20:02:28.443Z,9.33
2019-05-30T20:04:49.913Z,8.70
2019-05-30T20:07:11.411Z,8.60
2019-05-30T20:09:32.956Z,8.10
2019-05-30T20:12:14.203Z,8.38
2019-05-30T20:14:37.133Z,8.35
2019-05-30T20:17:04.590Z,7.53
2019-05-30T20:19:26.096Z,8.15
2019-05-30T20:21:47.730Z,7.92
2019-05-30T20:24:09.225Z,8.25
2019-05-30T20:26:32.382Z,8.08
2019-05-30T20:28:53.983Z,7.90
2019-05-30T20:31:15.576Z,7.65
2019-05-30T20:33:38.363Z,7.83
2019-05-30T20:36:00.017Z,7.58
2019-05-30T20:38:21.591Z,8.03
2019-05-30T20:40:43.129Z,7.80
2019-05-30T20:43:04.732Z,7.80
2019-05-30T20:45:26.323Z,7.45
2019-05-30T20:47:47.917Z,8.15
2019-05-30T20:50:10.620Z,7.40
2019-05-30T20:52:32.204Z,8.00
2019-05-30T20:54:53.717Z,7.50
2019-05-30T20:57:15.243Z,7.50
2019-05-30T20:59:37.055Z,7.28
2019-05-30T21:02:04.932Z,8.20
2019-05-30T21:04:26.595Z,8.08
2019-05-30T21:06:48.213Z,7.62
2019-05-30T21:09:27.214Z,7.65
2019-05-30T21:11:34.388Z,7.75
2019-05-30T21:13:55.976Z,7.20
2019-05-30T21:16:20.386Z,8.05
2019-05-30T21:18:45.906Z,7.28
2019-05-30T21:21:07.612Z,7.10
2019-05-30T21:23:29.175Z,8.05
2019-05-30T21:25:50.723Z,8.48
2019-05-30T21:28:12.713Z,7.53
2019-05-30T21:30:34.284Z,8.55
2019-05-30T21:32:56.014Z,7.50
2019-05-30T21:35:18.039Z,7.03
2019-05-30T21:37:39.949Z,8.13
2019-05-30T21:40:01.573Z,7.75
2019-05-30T21:42:23.047Z,7.97
2019-05-30T21:44:49.021Z,7.42
2019-05-30T21:47:08.405Z,7.33
2019-05-30T21:49:30.004Z,8.03
2019-05-30T21:51:51.975Z,6.80
2019-05-30T21:54:13.598Z,7.47
2019-05-30T21:56:35.092Z,7.50
2019-05-30T21:58:56.919Z,7.30
2019-05-30T22:01:22.117Z,6.55
2019-05-30T22:03:58.435Z,7.35
2019-05-30T22:06:20.527Z,7.12
2019-05-30T22:08:43.026Z,6.92
2019-05-30T22:11:05.012Z,7.08
2019-05-30T22:13:26.598Z,6.58
2019-05-30T22:15:48.345Z,7.40
2019-05-30T22:18:09.913Z,6.95
2019-05-30T22:20:31.397Z,7.22
2019-05-30T22:22:53.017Z,6.83
2019-05-30T22:25:14.640Z,6.90
2019-05-30T22:27:36.441Z,7.30
2019-05-30T22:29:58.370Z,6.67
2019-05-30T22:32:19.861Z,7.05
2019-05-30T22:34:42.587Z,6.33
2019-05-30T22:37:04.360Z,7.15
2019-05-30T22:39:25.848Z,6.72
2019-05-30T22:41:47.931Z,6.60
2019-05-30T22:44:09.764Z,6.00
2019-05-30T22:46:31.352Z,6.60
2019-05-30T22:48:53.050Z,7.30
2019-05-30T22:51:14.807Z,6.85
2019-05-30T22:53:36.415Z,6.95
2019-05-30T22:55:58.002Z,6.20
2019-05-30T22:58:19.534Z,6.60
2019-05-30T23:00:41.006Z,6.92
2019-05-30T23:03:02.597Z,6.33
2019-05-30T23:05:24.568Z,6.30
2019-05-30T23:07:47.346Z,6.60
2019-05-30T23:10:09.280Z,6.95
2019-05-30T23:12:30.916Z,7.17
2019-05-30T23:14:52.486Z,7.33
2019-05-30T23:17:14.076Z,6.70
2019-05-30T23:19:36.008Z,6.85
2019-05-30T23:21:57.639Z,6.90
2019-05-30T23:24:19.236Z,6.78
2019-05-30T23:26:40.712Z,6.83
2019-05-30T23:29:02.689Z,7.22
2019-05-30T23:31:24.185Z,7.92
2019-05-30T23:33:45.781Z,7.10
2019-05-30T23:36:07.398Z,8.03
2019-05-30T23:38:28.918Z,7.70
2019-05-30T23:40:50.992Z,7.78
2019-05-30T23:43:12.730Z,7.17
2019-05-30T23:45:34.323Z,7.12
2019-05-30T23:47:56.275Z,7.08
2019-05-30T23:50:18.585Z,7.03
2019-05-30T23:52:40.178Z,6.30
2019-05-30T23:55:02.360Z,7.62
2019-05-30T23:57:24.739Z,7.30
2019-05-30T23:59:46.222Z,6.10
